TAF PKWA
PKWA 090520Z 0906/1006 07015KT P6SM SCT022=
METAR PKWA
WC PKWA
WS PKWA
WV PKWA